Terminal Aerodrome Forecast
Issued by NWS

Home | Current Version | Previous Version | Text Only | Print | Product List | Glossary On
Versions: 1 2 3 4 5 6 7 8 9 10 11 12 13 14 15 16 17 18 19 20 21 22 23 24 25 26 27 28 29 30 31 32 33 34 35
000
FTUS46 KOTX 302321
TAFMWH
TAF
KMWH 302321Z 3100/3124 23017G22KT P6SM SCT090 SCT150
     FM310200 21010KT P6SM SCT200
     FM310800 20007KT P6SM FEW030 SCT080 BKN100
     FM311800 19012G20KT P6SM SCT060 BKN090=

USA.gov is the U.S. government's official web portal to all federal, state and local government web resources and services.